Time;durP1;ratioP1;P1;durP2;ratioP2;P2;SDS_P1;SDS_P2;PMS_P1;PMS_P2;Temp;Humidity;BMP_temperature;BMP_pressure;BME280_temperature;BME280_humidity;BME280_pressure;Samples;Min_cycle;Max_cycle;Signal;HPM_P1;HPM_P2
2023/04/30 00:01:52;;;;;;;4.25;2.85;;;7.90;99.90;;;;;;4962536;28;20050;-68
2023/04/30 00:04:18;;;;;;;4.60;2.50;;;7.90;99.90;;;;;;4950555;28;20049;-69
2023/04/30 00:06:44;;;;;;;3.38;2.30;;;7.90;99.90;;;;;;4951866;28;20513;-69
2023/04/30 00:09:11;;;;;;;3.88;2.33;;;7.90;99.90;;;;;;4952877;28;20057;-69
2023/04/30 00:11:37;;;;;;;4.20;1.85;;;7.90;99.90;;;;;;4928443;28;20042;-70
2023/04/30 00:14:03;;;;;;;3.72;2.17;;;7.90;99.90;;;;;;4967121;28;20039;-70
2023/04/30 00:16:30;;;;;;;4.68;1.88;;;7.80;99.90;;;;;;4957997;28;20540;-72
2023/04/30 00:18:56;;;;;;;3.40;2.35;;;7.80;99.90;;;;;;4958976;28;20046;-69
2023/04/30 00:21:22;;;;;;;3.80;2.08;;;7.80;99.90;;;;;;4968106;28;20038;-71
2023/04/30 00:23:48;;;;;;;2.75;1.70;;;7.80;99.90;;;;;;4945839;28;20053;-71
2023/04/30 00:26:15;;;;;;;5.45;2.20;;;7.80;99.90;;;;;;4950745;28;20039;-68
2023/04/30 00:28:46;;;;;;;4.78;2.25;;;7.80;99.90;;;;;;4952097;28;20485;-70
2023/04/30 00:31:12;;;;;;;4.32;2.35;;;7.70;99.90;;;;;;4965681;28;20053;-69
2023/04/30 00:33:38;;;;;;;3.38;2.33;;;7.70;99.90;;;;;;4938199;28;20042;-71
2023/04/30 00:36:05;;;;;;;6.65;2.42;;;7.70;99.90;;;;;;4944680;28;20061;-71
2023/04/30 00:38:31;;;;;;;4.13;2.72;;;7.60;99.90;;;;;;4981196;28;21311;-71
2023/04/30 00:40:58;;;;;;;4.47;2.15;;;7.70;99.90;;;;;;4957636;28;20042;-70
2023/04/30 00:43:24;;;;;;;3.15;2.20;;;7.60;99.90;;;;;;4952766;28;20493;-71
2023/04/30 00:45:50;;;;;;;3.08;2.15;;;7.60;99.90;;;;;;4971323;28;20038;-68
2023/04/30 00:48:17;;;;;;;4.68;2.53;;;7.60;99.90;;;;;;4958663;28;20129;-69
2023/04/30 00:50:44;;;;;;;2.35;1.42;;;7.60;99.90;;;;;;4950706;28;20507;-68
2023/04/30 00:53:11;;;;;;;5.63;2.60;;;7.60;99.90;;;;;;4952670;28;20038;-70
2023/04/30 00:55:39;;;;;;;3.70;1.67;;;7.50;99.90;;;;;;4958968;28;20042;-71
2023/04/30 00:58:07;;;;;;;4.80;2.67;;;7.50;99.90;;;;;;4981288;28;20046;-71
2023/04/30 01:00:34;;;;;;;4.93;2.22;;;7.50;99.90;;;;;;4956989;28;20848;-70
2023/04/30 01:03:00;;;;;;;2.95;1.73;;;7.50;99.90;;;;;;4972353;28;20373;-72
2023/04/30 01:05:27;;;;;;;3.17;1.88;;;7.50;99.90;;;;;;4956277;28;20026;-71
2023/04/30 01:07:55;;;;;;;3.50;2.00;;;7.50;99.90;;;;;;4974506;28;20322;-71
2023/04/30 01:10:28;;;;;;;3.67;1.60;;;7.50;99.90;;;;;;4952380;28;20050;-70
2023/04/30 01:13:19;;;;;;;3.85;1.70;;;7.50;99.90;;;;;;4968727;28;20038;-71
2023/04/30 01:16:07;;;;;;;6.72;2.45;;;7.50;99.90;;;;;;4958170;28;20183;-69
2023/04/30 01:18:47;;;;;;;3.03;2.00;;;7.40;99.90;;;;;;4948047;28;20022;-70
2023/04/30 01:21:17;;;;;;;4.20;2.10;;;7.40;99.90;;;;;;4956705;28;20034;-71
2023/04/30 01:24:11;;;;;;;3.03;1.50;;;7.40;99.90;;;;;;4958032;28;20485;-69
2023/04/30 01:27:14;;;;;;;2.05;1.20;;;7.40;99.90;;;;;;4958538;28;20038;-68
2023/04/30 01:29:44;;;;;;;3.08;1.67;;;7.40;99.90;;;;;;4956264;28;20045;-70
2023/04/30 01:32:10;;;;;;;2.97;1.60;;;7.40;99.90;;;;;;4949459;28;20030;-69
2023/04/30 01:34:37;;;;;;;2.60;1.45;;;7.30;99.90;;;;;;4969312;28;20333;-72
2023/04/30 01:37:35;;;;;;;2.00;1.20;;;7.30;99.90;;;;;;4957512;28;20046;-71
2023/04/30 01:40:23;;;;;;;2.00;1.15;;;7.30;99.90;;;;;;4976165;28;20046;-70
2023/04/30 01:43:10;;;;;;;2.45;1.88;;;7.30;99.90;;;;;;4952780;28;20039;-72
2023/04/30 01:46:09;;;;;;;3.13;2.03;;;7.20;99.90;;;;;;4934869;28;20042;-68
2023/04/30 01:49:07;;;;;;;4.28;1.85;;;7.20;99.90;;;;;;4935915;28;20038;-70
2023/04/30 01:51:47;;;;;;;5.32;2.33;;;7.20;99.90;;;;;;4947737;28;20042;-69
2023/04/30 01:54:30;;;;;;;4.05;2.33;;;7.10;99.90;;;;;;4951445;28;20034;-69
2023/04/30 01:57:05;;;;;;;5.63;2.90;;;7.10;99.90;;;;;;4961137;28;20042;-70
2023/04/30 01:59:38;;;;;;;5.30;2.97;;;7.10;99.90;;;;;;4959901;28;20038;-68
2023/04/30 02:02:05;;;;;;;3.88;2.60;;;7.10;99.90;;;;;;4966459;28;21203;-66
2023/04/30 02:04:32;;;;;;;3.65;1.90;;;7.10;99.90;;;;;;4952986;28;20380;-68
2023/04/30 02:06:58;;;;;;;6.97;3.28;;;7.10;99.90;;;;;;4953473;28;20125;-68
2023/04/30 02:09:25;;;;;;;6.60;3.38;;;7.00;99.90;;;;;;4952832;28;20054;-66
2023/04/30 02:11:51;;;;;;;7.55;3.58;;;7.10;99.90;;;;;;4961061;28;20033;-70
2023/04/30 02:14:17;;;;;;;7.60;3.03;;;7.10;99.90;;;;;;4954436;28;20041;-67
2023/04/30 02:16:45;;;;;;;5.50;3.30;;;7.10;99.90;;;;;;4941946;28;20057;-68
2023/04/30 02:19:11;;;;;;;3.38;2.70;;;7.10;99.90;;;;;;4945658;28;20083;-67
2023/04/30 02:21:37;;;;;;;6.95;3.40;;;7.10;99.90;;;;;;4953109;28;20034;-68
2023/04/30 02:24:05;;;;;;;5.32;2.65;;;7.00;99.90;;;;;;4948704;28;20477;-68
2023/04/30 02:26:31;;;;;;;6.38;3.30;;;7.00;99.90;;;;;;4968267;28;20481;-68
2023/04/30 02:28:57;;;;;;;7.15;3.25;;;7.00;99.90;;;;;;4954289;28;20038;-66
2023/04/30 02:31:24;;;;;;;3.70;2.65;;;7.00;99.90;;;;;;4945271;28;20018;-67
2023/04/30 02:33:50;;;;;;;4.35;2.67;;;7.00;99.90;;;;;;4949462;28;20377;-68
2023/04/30 02:36:16;;;;;;;5.68;2.42;;;7.00;99.90;;;;;;4939749;28;22638;-68
2023/04/30 02:38:43;;;;;;;7.45;3.28;;;7.00;99.90;;;;;;4961737;28;20042;-69
2023/04/30 02:41:09;;;;;;;4.43;2.85;;;7.00;99.90;;;;;;4937801;28;20499;-67
2023/04/30 02:43:35;;;;;;;5.00;2.20;;;7.00;99.90;;;;;;4946821;28;20038;-69
2023/04/30 02:46:01;;;;;;;4.95;3.20;;;7.00;99.90;;;;;;4950072;28;20038;-69
2023/04/30 02:48:28;;;;;;;5.47;2.47;;;7.00;99.90;;;;;;4953088;28;20034;-68
2023/04/30 02:50:54;;;;;;;2.47;1.73;;;7.00;99.90;;;;;;4947294;28;20531;-70
2023/04/30 02:53:20;;;;;;;3.85;2.50;;;6.90;99.90;;;;;;4948771;28;20034;-70
2023/04/30 02:55:47;;;;;;;4.47;2.60;;;6.90;99.90;;;;;;4952667;28;20046;-68
2023/04/30 02:58:13;;;;;;;4.57;2.70;;;6.90;99.90;;;;;;4977927;28;20049;-68
2023/04/30 03:00:40;;;;;;;7.43;3.60;;;6.90;99.90;;;;;;4969155;28;20042;-68
2023/04/30 03:03:06;;;;;;;3.78;2.63;;;6.90;99.90;;;;;;4922488;28;20545;-68
2023/04/30 03:05:32;;;;;;;10.57;4.28;;;6.90;99.90;;;;;;4951229;28;20354;-69
2023/04/30 03:08:01;;;;;;;7.55;4.00;;;6.90;99.90;;;;;;4930536;28;20049;-70
2023/04/30 03:10:28;;;;;;;6.28;3.78;;;6.90;99.90;;;;;;4960791;28;20054;-69
2023/04/30 03:12:54;;;;;;;4.05;3.28;;;6.90;99.90;;;;;;4932311;28;20026;-69
2023/04/30 03:15:20;;;;;;;7.97;3.13;;;6.80;99.90;;;;;;4936503;28;20034;-70
2023/04/30 03:17:47;;;;;;;4.80;3.58;;;6.90;99.90;;;;;;4974692;28;20042;-67
2023/04/30 03:20:13;;;;;;;5.35;3.25;;;6.80;99.90;;;;;;4938122;28;20069;-68
2023/04/30 03:22:40;;;;;;;4.72;2.25;;;6.80;99.90;;;;;;4966265;28;20550;-69
2023/04/30 03:25:09;;;;;;;8.07;3.88;;;6.80;99.90;;;;;;4950108;28;20045;-67
2023/04/30 03:27:35;;;;;;;5.75;3.47;;;6.80;99.90;;;;;;4949971;28;20042;-70
2023/04/30 03:30:02;;;;;;;7.47;3.47;;;6.80;99.90;;;;;;4948490;28;20557;-69
2023/04/30 03:32:28;;;;;;;6.63;3.78;;;6.80;99.90;;;;;;4962724;28;20666;-67
2023/04/30 03:34:54;;;;;;;7.40;3.00;;;6.80;99.90;;;;;;4948895;28;20038;-69
2023/04/30 03:37:21;;;;;;;6.00;3.55;;;6.80;99.90;;;;;;4956812;28;20130;-69
2023/04/30 03:39:47;;;;;;;7.95;3.58;;;6.70;99.90;;;;;;4972301;28;20046;-66
2023/04/30 03:42:13;;;;;;;6.82;3.58;;;6.70;99.90;;;;;;4949030;28;20034;-67
2023/04/30 03:44:39;;;;;;;4.60;2.10;;;6.70;99.90;;;;;;4949946;28;20290;-67
2023/04/30 03:47:06;;;;;;;5.40;2.58;;;6.70;99.90;;;;;;4966956;28;20038;-69
2023/04/30 03:49:32;;;;;;;10.30;4.55;;;6.60;99.90;;;;;;4933836;28;20425;-69
2023/04/30 03:51:59;;;;;;;6.88;4.13;;;6.60;99.90;;;;;;4940941;28;20038;-69
2023/04/30 03:54:26;;;;;;;5.80;3.97;;;6.60;99.90;;;;;;4953643;28;20033;-67
2023/04/30 03:56:53;;;;;;;7.20;4.13;;;6.60;99.90;;;;;;4971139;28;20026;-67
2023/04/30 03:59:19;;;;;;;5.97;3.17;;;6.60;99.90;;;;;;4960206;28;20069;-69
2023/04/30 04:01:46;;;;;;;6.68;4.45;;;6.60;99.90;;;;;;4948053;28;20042;-68
2023/04/30 04:04:13;;;;;;;7.82;4.25;;;6.60;99.90;;;;;;4951455;28;20025;-68
2023/04/30 04:06:39;;;;;;;5.10;4.20;;;6.60;99.90;;;;;;4940454;28;20037;-70
2023/04/30 04:09:06;;;;;;;4.50;2.90;;;6.50;99.90;;;;;;4958037;28;20054;-69
2023/04/30 04:11:33;;;;;;;9.25;5.63;;;6.50;99.90;;;;;;4935290;28;20065;-70
2023/04/30 04:14:00;;;;;;;9.88;5.63;;;6.50;99.90;;;;;;4953812;28;20504;-67
2023/04/30 04:16:26;;;;;;;5.72;4.40;;;6.50;99.90;;;;;;4970478;28;20443;-70
2023/04/30 04:18:52;;;;;;;6.40;4.10;;;6.50;99.90;;;;;;4975666;28;20101;-69
2023/04/30 04:21:19;;;;;;;7.35;3.97;;;6.50;99.90;;;;;;4954836;28;20038;-68
2023/04/30 04:23:45;;;;;;;10.18;5.35;;;6.50;99.90;;;;;;4957031;28;20049;-70
2023/04/30 04:26:11;;;;;;;7.13;4.53;;;6.50;99.90;;;;;;4938733;28;20033;-70
2023/04/30 04:28:38;;;;;;;11.82;6.35;;;6.50;99.90;;;;;;4956621;28;20039;-66
2023/04/30 04:31:04;;;;;;;8.88;5.22;;;6.50;99.90;;;;;;4932497;28;20035;-70
2023/04/30 04:33:31;;;;;;;6.32;4.78;;;6.50;99.90;;;;;;4954242;28;20034;-67
2023/04/30 04:35:58;;;;;;;5.63;3.67;;;6.60;99.90;;;;;;4943092;28;20461;-69
2023/04/30 04:38:25;;;;;;;6.43;4.05;;;6.60;99.90;;;;;;4962911;28;21790;-69
2023/04/30 04:40:55;;;;;;;6.22;2.50;;;6.60;99.90;;;;;;4941590;28;20042;-68
2023/04/30 04:43:22;;;;;;;9.40;3.78;;;6.70;99.90;;;;;;4955731;28;20466;-67
2023/04/30 04:45:49;;;;;;;5.53;3.55;;;6.80;99.90;;;;;;4956442;28;20038;-67
2023/04/30 04:48:15;;;;;;;6.72;3.63;;;6.80;99.90;;;;;;4956738;28;20371;-69
2023/04/30 04:50:42;;;;;;;4.53;3.40;;;6.90;99.90;;;;;;4934563;28;20049;-68
2023/04/30 04:53:08;;;;;;;5.47;3.30;;;7.00;99.90;;;;;;4954730;28;20477;-69
2023/04/30 04:55:35;;;;;;;7.78;4.57;;;7.10;99.90;;;;;;4975127;28;20030;-69
2023/04/30 04:58:01;;;;;;;9.02;4.45;;;7.20;99.90;;;;;;4967713;28;20492;-70
2023/04/30 05:00:28;;;;;;;6.88;5.45;;;7.40;99.90;;;;;;4957834;28;20030;-70
2023/04/30 05:02:55;;;;;;;12.48;5.95;;;7.60;99.90;;;;;;4954763;28;20370;-69
2023/04/30 05:05:21;;;;;;;7.90;5.63;;;7.80;99.90;;;;;;4954953;28;20038;-68
2023/04/30 05:07:51;;;;;;;11.77;6.03;;;7.90;99.90;;;;;;4973501;28;20341;-69
2023/04/30 05:10:17;;;;;;;8.25;6.40;;;7.90;99.90;;;;;;4966824;28;20058;-68
2023/04/30 05:12:43;;;;;;;9.05;5.20;;;7.80;99.90;;;;;;4969506;28;20038;-69
2023/04/30 05:15:10;;;;;;;7.95;4.60;;;7.80;99.90;;;;;;4955461;28;20412;-70
2023/04/30 05:17:36;;;;;;;8.60;4.97;;;7.80;99.90;;;;;;4958529;28;20026;-68
2023/04/30 05:20:02;;;;;;;7.35;5.10;;;7.80;99.90;;;;;;4954575;28;20046;-68
2023/04/30 05:22:30;;;;;;;6.32;4.57;;;7.80;99.90;;;;;;4951550;28;20061;-68
2023/04/30 05:24:56;;;;;;;8.68;6.03;;;7.90;99.90;;;;;;4969835;28;20050;-69
2023/04/30 05:27:22;;;;;;;11.52;6.88;;;7.90;99.90;;;;;;4936288;28;20049;-70
2023/04/30 05:29:49;;;;;;;7.68;5.32;;;7.90;99.90;;;;;;4967674;28;20606;-68
2023/04/30 05:32:15;;;;;;;10.27;5.53;;;8.00;99.90;;;;;;4943926;28;20038;-68
2023/04/30 05:34:41;;;;;;;7.22;5.47;;;8.00;99.90;;;;;;4951929;28;20512;-69
2023/04/30 05:37:08;;;;;;;7.88;5.30;;;8.20;99.90;;;;;;4954651;28;20590;-70
2023/04/30 05:39:34;;;;;;;8.55;6.00;;;8.30;99.90;;;;;;4955171;28;20061;-67
2023/04/30 05:42:01;;;;;;;11.65;5.82;;;8.40;99.90;;;;;;4952554;28;20590;-67
2023/04/30 05:44:29;;;;;;;8.82;5.95;;;8.50;99.90;;;;;;4953104;28;20041;-68
2023/04/30 05:46:55;;;;;;;10.32;5.07;;;8.70;99.90;;;;;;4954273;28;20045;-69
2023/04/30 05:49:22;;;;;;;8.80;6.18;;;8.80;99.90;;;;;;4952569;28;20042;-67
2023/04/30 05:51:48;;;;;;;9.15;5.82;;;9.00;99.90;;;;;;4943873;28;20472;-69
2023/04/30 05:54:14;;;;;;;6.78;4.47;;;9.10;99.90;;;;;;4950515;28;20038;-69
2023/04/30 05:56:40;;;;;;;5.97;4.45;;;9.30;99.90;;;;;;4953827;28;20046;-69
2023/04/30 05:59:07;;;;;;;7.82;4.47;;;9.40;99.90;;;;;;4959515;28;20039;-69
2023/04/30 06:01:33;;;;;;;5.45;4.22;;;9.60;99.90;;;;;;4951706;28;20038;-69
2023/04/30 06:04:00;;;;;;;10.93;6.43;;;9.80;99.90;;;;;;4951267;28;20369;-67
2023/04/30 06:06:27;;;;;;;7.50;4.97;;;9.90;99.90;;;;;;4949873;28;20412;-69
2023/04/30 06:08:53;;;;;;;7.30;4.32;;;10.10;99.90;;;;;;4950591;28;21137;-68
2023/04/30 06:11:20;;;;;;;9.35;5.18;;;10.20;99.90;;;;;;4945305;28;20058;-68
2023/04/30 06:13:48;;;;;;;7.40;4.30;;;10.30;99.90;;;;;;4948645;28;20473;-68
2023/04/30 06:16:14;;;;;;;10.20;5.05;;;10.40;99.90;;;;;;4948913;28;20045;-71
2023/04/30 06:18:40;;;;;;;9.20;4.63;;;10.50;99.90;;;;;;4958797;28;20034;-68
2023/04/30 06:21:06;;;;;;;6.82;4.93;;;10.60;99.90;;;;;;4953269;28;20941;-67
2023/04/30 06:23:33;;;;;;;6.22;4.68;;;10.70;99.90;;;;;;4952747;28;20259;-67
2023/04/30 06:25:59;;;;;;;6.32;4.68;;;10.70;99.90;;;;;;4950069;28;20038;-68
2023/04/30 06:28:25;;;;;;;9.65;5.43;;;10.90;99.90;;;;;;4949847;28;20030;-68
2023/04/30 06:30:53;;;;;;;10.40;5.78;;;11.00;99.90;;;;;;4943619;28;20042;-70
2023/04/30 06:33:20;;;;;;;7.30;4.40;;;11.20;99.90;;;;;;4947092;28;20715;-68
2023/04/30 06:35:47;;;;;;;7.90;4.82;;;11.30;99.90;;;;;;4951303;28;20054;-70
2023/04/30 06:38:13;;;;;;;5.85;3.38;;;11.60;99.90;;;;;;4952828;28;20466;-70
2023/04/30 06:40:40;;;;;;;8.70;4.85;;;11.90;99.90;;;;;;4948916;28;20042;-69
2023/04/30 06:43:06;;;;;;;7.90;4.82;;;12.10;99.90;;;;;;4953129;28;20397;-69
2023/04/30 06:45:33;;;;;;;7.53;4.75;;;12.30;99.90;;;;;;4940252;28;20045;-70
2023/04/30 06:47:59;;;;;;;6.32;4.32;;;12.30;99.90;;;;;;4967304;28;20034;-68
2023/04/30 06:50:25;;;;;;;12.20;6.53;;;12.40;99.90;;;;;;4962967;28;20376;-69
2023/04/30 06:52:52;;;;;;;5.93;3.63;;;12.50;99.90;;;;;;4943577;28;20026;-68
2023/04/30 06:55:18;;;;;;;8.02;5.00;;;12.40;99.90;;;;;;4950930;28;21241;-69
2023/04/30 06:57:44;;;;;;;5.88;3.72;;;12.40;99.90;;;;;;4952026;28;20041;-70
2023/04/30 07:00:14;;;;;;;5.00;3.53;;;12.60;99.90;;;;;;4966339;28;20068;-71
2023/04/30 07:02:40;;;;;;;6.90;4.10;;;12.80;99.90;;;;;;4953790;28;20037;-69
2023/04/30 07:05:07;;;;;;;5.07;3.28;;;13.00;99.90;;;;;;4958383;28;20046;-69
2023/04/30 07:07:34;;;;;;;6.57;3.88;;;13.20;99.90;;;;;;4953019;28;20485;-69
2023/04/30 07:10:00;;;;;;;9.30;4.45;;;13.20;99.90;;;;;;4947695;28;20061;-69
2023/04/30 07:12:26;;;;;;;5.75;3.60;;;13.20;99.90;;;;;;4949389;28;20050;-68
2023/04/30 07:14:53;;;;;;;8.15;2.95;;;13.20;99.90;;;;;;4936767;28;20043;-68
2023/04/30 07:17:19;;;;;;;9.20;3.92;;;13.20;99.90;;;;;;4935287;28;20042;-69
2023/04/30 07:19:45;;;;;;;7.82;3.10;;;13.10;99.90;;;;;;4951774;28;20402;-68
2023/04/30 07:22:12;;;;;;;3.58;2.35;;;13.10;99.90;;;;;;4953281;28;21252;-69
2023/04/30 07:24:38;;;;;;;10.77;3.90;;;13.00;99.90;;;;;;4959175;28;20037;-70
2023/04/30 07:27:06;;;;;;;4.20;2.88;;;13.00;99.90;;;;;;4956137;28;20078;-68
2023/04/30 07:29:33;;;;;;;3.13;2.25;;;13.00;99.90;;;;;;4967067;28;20046;-69
2023/04/30 07:32:00;;;;;;;5.68;2.58;;;13.10;99.90;;;;;;4942731;28;20045;-69
2023/04/30 07:34:26;;;;;;;3.50;1.52;;;13.20;99.90;;;;;;4953126;28;20400;-70
2023/04/30 07:36:53;;;;;;;3.88;2.30;;;13.30;99.90;;;;;;4950330;28;20050;-69
2023/04/30 07:39:19;;;;;;;5.38;1.80;;;13.50;99.90;;;;;;4952513;28;20122;-69
2023/04/30 07:41:45;;;;;;;6.35;3.13;;;13.60;99.90;;;;;;4949876;28;20385;-69
2023/04/30 07:44:12;;;;;;;6.57;3.35;;;13.80;99.90;;;;;;4957525;28;20038;-70
2023/04/30 07:46:38;;;;;;;7.07;2.78;;;13.80;99.90;;;;;;4954781;28;20034;-69
2023/04/30 07:49:04;;;;;;;5.25;3.35;;;13.90;99.90;;;;;;4950220;28;20034;-70
2023/04/30 07:51:31;;;;;;;5.97;3.60;;;13.80;99.90;;;;;;4943790;28;20045;-68
2023/04/30 07:53:59;;;;;;;4.95;2.55;;;13.80;99.90;;;;;;4949595;28;20045;-69
2023/04/30 07:56:25;;;;;;;6.50;2.47;;;13.90;99.90;;;;;;4951339;28;20030;-68
2023/04/30 07:58:52;;;;;;;5.18;2.42;;;14.00;99.90;;;;;;4950437;28;20046;-69
2023/04/30 08:01:18;;;;;;;3.47;2.30;;;14.10;99.90;;;;;;4950518;28;20034;-69
2023/04/30 08:03:45;;;;;;;5.75;2.75;;;14.20;99.90;;;;;;4954121;28;20038;-69
2023/04/30 08:06:11;;;;;;;3.72;2.17;;;14.30;99.90;;;;;;4955163;28;20042;-68
2023/04/30 08:08:38;;;;;;;9.50;4.20;;;14.40;99.90;;;;;;4949570;28;20049;-68
2023/04/30 08:11:04;;;;;;;7.60;3.50;;;14.60;99.90;;;;;;4947129;28;20492;-69
2023/04/30 08:13:31;;;;;;;6.85;3.13;;;14.60;99.90;;;;;;4945871;28;20026;-69
2023/04/30 08:15:57;;;;;;;5.70;3.30;;;14.70;99.90;;;;;;4949730;28;20038;-68
2023/04/30 08:18:23;;;;;;;4.68;3.13;;;14.70;99.90;;;;;;4951107;28;20044;-68
2023/04/30 08:20:49;;;;;;;5.70;2.42;;;14.60;99.90;;;;;;4950387;28;20053;-69
2023/04/30 08:23:16;;;;;;;5.18;3.20;;;14.70;99.90;;;;;;4954197;28;20038;-68
2023/04/30 08:25:42;;;;;;;7.82;4.25;;;14.80;99.90;;;;;;4955745;28;20058;-67
2023/04/30 08:28:08;;;;;;;5.63;3.20;;;14.80;99.90;;;;;;4951395;28;20030;-69
2023/04/30 08:30:35;;;;;;;6.75;3.08;;;14.90;99.90;;;;;;4942089;28;20038;-69
2023/04/30 08:33:01;;;;;;;4.43;2.88;;;14.90;99.90;;;;;;4941694;28;20647;-69
2023/04/30 08:35:28;;;;;;;5.05;3.17;;;15.00;99.90;;;;;;4950915;28;20038;-68
2023/04/30 08:37:55;;;;;;;5.75;2.65;;;15.00;99.90;;;;;;4951596;28;20591;-71
2023/04/30 08:40:21;;;;;;;4.85;3.00;;;15.10;99.90;;;;;;4947119;28;20482;-69
2023/04/30 08:43:03;;;;;;;4.50;2.33;;;15.20;99.90;;;;;;4951395;28;20414;-69
2023/04/30 08:45:31;;;;;;;5.80;2.70;;;15.30;99.90;;;;;;4956558;28;20038;-68
2023/04/30 08:47:59;;;;;;;4.22;2.38;;;15.30;99.90;;;;;;4951151;28;20037;-70
2023/04/30 08:50:26;;;;;;;4.35;2.65;;;15.40;99.90;;;;;;4942692;28;20030;-68
2023/04/30 08:52:53;;;;;;;4.18;2.47;;;15.60;99.90;;;;;;4945947;28;20049;-69
2023/04/30 08:55:19;;;;;;;4.22;1.95;;;15.70;99.90;;;;;;4971125;28;20038;-70
2023/04/30 08:57:46;;;;;;;4.20;1.95;;;15.80;99.90;;;;;;4955580;28;20046;-69
2023/04/30 09:00:12;;;;;;;3.88;1.90;;;15.80;99.90;;;;;;4950673;28;20034;-68
2023/04/30 09:02:42;;;;;;;5.00;3.15;;;15.90;99.90;;;;;;4957092;28;20042;-71
2023/04/30 09:05:11;;;;;;;4.90;2.53;;;15.90;99.90;;;;;;4961764;28;20385;-70
2023/04/30 09:07:41;;;;;;;3.28;2.30;;;15.90;99.90;;;;;;4956751;28;20023;-69
2023/04/30 09:10:18;;;;;;;4.35;2.08;;;15.80;99.90;;;;;;4950504;28;20055;-68
2023/04/30 09:13:03;;;;;;;5.03;2.38;;;15.80;99.90;;;;;;4950798;28;20467;-68
2023/04/30 09:15:31;;;;;;;7.15;2.60;;;15.80;99.90;;;;;;4956007;28;22555;-70
2023/04/30 09:18:16;;;;;;;5.43;3.03;;;16.00;99.90;;;;;;4956603;28;20372;-70
2023/04/30 09:21:00;;;;;;;5.13;2.70;;;16.10;99.90;;;;;;4971049;28;20381;-68
2023/04/30 09:23:27;;;;;;;4.13;1.60;;;16.00;99.90;;;;;;4956705;28;20030;-69
2023/04/30 09:25:53;;;;;;;4.80;2.35;;;16.10;99.90;;;;;;4941818;28;20038;-69
2023/04/30 09:28:25;;;;;;;4.57;3.35;;;16.20;99.90;;;;;;4954983;28;20034;-70
2023/04/30 09:30:51;;;;;;;5.67;2.57;;;16.30;99.90;;;;;;4950258;28;20034;-71
2023/04/30 09:33:18;;;;;;;2.70;1.85;;;16.30;99.90;;;;;;4951314;28;20073;-71
2023/04/30 09:35:44;;;;;;;5.25;3.65;;;16.30;99.90;;;;;;4972205;28;20045;-69
2023/04/30 09:38:31;;;;;;;4.35;2.65;;;16.50;99.90;;;;;;4953266;28;20053;-70
2023/04/30 09:41:00;;;;;;;4.50;2.10;;;16.50;99.90;;;;;;4956680;28;20050;-67
2023/04/30 09:43:27;;;;;;;3.97;2.35;;;16.50;99.90;;;;;;4954917;28;20038;-71
2023/04/30 09:45:54;;;;;;;4.25;2.75;;;16.60;99.90;;;;;;4958876;28;20030;-69
2023/04/30 09:48:21;;;;;;;4.15;2.92;;;16.70;99.90;;;;;;4956869;28;20022;-68
2023/04/30 09:50:49;;;;;;;3.67;2.40;;;16.80;99.90;;;;;;4949738;28;20038;-67
2023/04/30 09:53:19;;;;;;;4.07;2.05;;;16.80;99.90;;;;;;4950075;28;20081;-67
2023/04/30 09:55:47;;;;;;;3.97;1.63;;;16.90;99.90;;;;;;4956790;28;21786;-68
2023/04/30 09:58:15;;;;;;;2.65;1.88;;;16.90;99.90;;;;;;4957623;28;22174;-68
2023/04/30 10:00:44;;;;;;;3.17;1.45;;;17.00;99.90;;;;;;4953805;28;20057;-69
2023/04/30 10:03:14;;;;;;;2.88;1.65;;;17.10;99.90;;;;;;4955217;28;20035;-70
2023/04/30 10:05:47;;;;;;;3.00;1.55;;;17.20;99.90;;;;;;4939474;28;20345;-69
2023/04/30 10:08:29;;;;;;;3.58;1.98;;;17.30;99.90;;;;;;4957602;28;20388;-69
2023/04/30 10:11:03;;;;;;;3.58;2.13;;;17.50;99.90;;;;;;4948784;28;20150;-68
2023/04/30 10:13:46;;;;;;;2.35;1.20;;;17.60;99.90;;;;;;4949322;28;20382;-69
2023/04/30 10:16:35;;;;;;;;;;;17.70;99.90;;;;;;4955220;28;20038;-70
2023/04/30 10:19:32;;;;;;;3.17;1.40;;;17.80;99.90;;;;;;4940187;28;19933;-69
2023/04/30 10:22:00;;;;;;;2.63;1.35;;;17.90;99.90;;;;;;4965315;28;20054;-67
2023/04/30 10:24:27;;;;;;;2.50;1.65;;;18.20;99.90;;;;;;4961753;28;20613;-68
2023/04/30 10:26:56;;;;;;;4.10;2.38;;;18.40;99.90;;;;;;4958319;28;20062;-69
2023/04/30 10:29:22;;;;;;;3.58;2.30;;;18.40;99.90;;;;;;4955011;28;20090;-70
2023/04/30 10:31:49;;;;;;;2.92;1.70;;;18.50;99.90;;;;;;4944261;28;20042;-67
2023/04/30 10:34:48;;;;;;;3.63;1.45;;;18.70;99.90;;;;;;4954759;28;20038;-69
2023/04/30 10:37:26;;;;;;;2.80;1.42;;;19.20;99.90;;;;;;4955604;28;20050;-69
2023/04/30 10:39:53;;;;;;;3.38;1.88;;;19.60;99.40;;;;;;4953070;28;20038;-69
2023/04/30 10:42:19;;;;;;;4.50;1.80;;;19.70;98.00;;;;;;4970194;28;20038;-69
2023/04/30 10:44:47;;;;;;;2.83;1.75;;;19.70;97.70;;;;;;4960189;28;20034;-67
2023/04/30 10:47:15;;;;;;;3.95;1.98;;;19.90;97.90;;;;;;4957864;28;20473;-69
2023/04/30 10:49:49;;;;;;;1.83;0.95;;;20.10;97.20;;;;;;4953057;28;20045;-68
2023/04/30 10:52:26;;;;;;;5.10;2.60;;;20.30;97.10;;;;;;4947523;28;20034;-68
2023/04/30 10:54:52;;;;;;;2.90;1.42;;;20.60;95.00;;;;;;4954359;28;20046;-69
2023/04/30 10:57:20;;;;;;;2.97;1.33;;;20.90;95.60;;;;;;4953843;28;20027;-69
2023/04/30 10:59:49;;;;;;;2.28;1.20;;;21.30;95.80;;;;;;4951206;28;20049;-69
2023/04/30 11:02:16;;;;;;;3.83;1.77;;;21.80;95.00;;;;;;4954274;28;20053;-69
2023/04/30 11:05:13;;;;;;;4.85;1.13;;;22.10;94.00;;;;;;4961756;28;20058;-69
2023/04/30 11:07:47;;;;;;;4.72;2.10;;;22.10;92.70;;;;;;4954369;28;20486;-68
2023/04/30 11:10:14;;;;;;;3.45;1.85;;;22.30;91.70;;;;;;4948798;28;20062;-68
2023/04/30 11:12:47;;;;;;;3.45;1.70;;;22.40;91.20;;;;;;4947491;28;20023;-68
2023/04/30 11:15:18;;;;;;;5.65;1.88;;;22.40;90.80;;;;;;4954537;28;21060;-69
2023/04/30 11:17:47;;;;;;;3.67;1.77;;;22.40;90.10;;;;;;4954083;28;20037;-69
2023/04/30 11:20:24;;;;;;;2.13;1.27;;;22.50;90.20;;;;;;4958003;28;20026;-70
2023/04/30 11:23:14;;;;;;;5.72;1.63;;;22.80;90.30;;;;;;4955677;28;20038;-69
2023/04/30 11:25:45;;;;;;;2.90;1.33;;;23.20;88.50;;;;;;4954662;28;20030;-68
2023/04/30 11:28:23;;;;;;;3.15;1.20;;;23.30;86.90;;;;;;4955036;28;20569;-69
2023/04/30 11:30:58;;;;;;;4.00;1.60;;;23.50;86.10;;;;;;4950580;28;20895;-69
2023/04/30 11:33:26;;;;;;;3.60;1.50;;;23.60;85.10;;;;;;4950336;28;20079;-70
2023/04/30 11:35:54;;;;;;;4.30;1.63;;;23.90;84.40;;;;;;4954107;28;20246;-68
2023/04/30 11:38:34;;;;;;;3.75;1.45;;;24.00;82.40;;;;;;4952794;28;20034;-69
2023/04/30 11:41:01;;;;;;;2.35;0.77;;;24.30;81.60;;;;;;4936382;28;20026;-70
2023/04/30 11:43:30;;;;;;;3.88;1.45;;;24.40;80.80;;;;;;4956251;28;20041;-69
2023/04/30 11:46:12;;;;;;;9.40;4.60;;;24.80;80.00;;;;;;4961160;28;20022;-70
2023/04/30 11:48:41;;;;;;;3.88;1.52;;;25.10;78.20;;;;;;4956336;28;20030;-69
2023/04/30 11:51:25;;;;;;;3.42;1.17;;;25.40;77.80;;;;;;4950869;28;20625;-66
2023/04/30 11:53:52;;;;;;;2.42;1.00;;;25.60;76.00;;;;;;4951053;28;20046;-66
2023/04/30 11:56:20;;;;;;;2.58;0.90;;;25.70;74.50;;;;;;4954693;28;20042;-67
2023/04/30 11:58:48;;;;;;;2.17;0.90;;;25.90;74.10;;;;;;4953849;28;20049;-68
2023/04/30 12:01:15;;;;;;;3.00;1.15;;;26.30;72.90;;;;;;4952398;28;20043;-68
2023/04/30 12:03:46;;;;;;;3.33;0.98;;;26.60;71.50;;;;;;4953546;28;20023;-68
2023/04/30 12:06:24;;;;;;;3.05;0.90;;;26.70;71.20;;;;;;4956814;28;20038;-66
2023/04/30 12:08:54;;;;;;;3.67;1.10;;;27.10;70.80;;;;;;4970422;28;20037;-68
2023/04/30 12:11:21;;;;;;;3.42;1.20;;;27.40;69.80;;;;;;4944990;28;20141;-67
2023/04/30 12:13:55;;;;;;;3.33;0.90;;;27.60;68.20;;;;;;4949611;28;20053;-68
2023/04/30 12:16:24;;;;;;;2.90;0.93;;;27.70;66.60;;;;;;4952004;28;20026;-68
2023/04/30 12:18:50;;;;;;;3.25;1.17;;;27.60;65.80;;;;;;4956984;28;20049;-67
2023/04/30 12:21:17;;;;;;;2.88;0.95;;;27.70;66.40;;;;;;4955591;28;20468;-66
2023/04/30 12:23:44;;;;;;;2.85;1.33;;;27.80;65.60;;;;;;4944330;28;20050;-67
2023/04/30 12:26:10;;;;;;;3.83;2.22;;;28.10;65.60;;;;;;4954820;28;20030;-68
2023/04/30 12:28:36;;;;;;;3.33;1.23;;;28.40;64.90;;;;;;4956803;28;20045;-67
2023/04/30 12:31:03;;;;;;;2.10;0.90;;;28.70;63.30;;;;;;4952786;28;20050;-68
2023/04/30 12:33:30;;;;;;;2.35;0.70;;;28.70;62.30;;;;;;4955385;28;21077;-69
2023/04/30 12:35:57;;;;;;;2.60;0.60;;;28.70;62.20;;;;;;4957146;28;20026;-68
2023/04/30 12:38:24;;;;;;;1.85;0.73;;;28.70;61.60;;;;;;4957391;28;20029;-68
2023/04/30 12:40:50;;;;;;;1.80;0.50;;;28.90;60.30;;;;;;4958483;28;20041;-68
2023/04/30 12:43:17;;;;;;;2.05;0.60;;;29.10;60.00;;;;;;4958144;28;20030;-68
2023/04/30 12:45:54;;;;;;;1.63;0.70;;;29.10;59.30;;;;;;4962929;28;20039;-67
2023/04/30 12:48:24;;;;;;;1.75;0.88;;;29.00;59.50;;;;;;4957557;28;20709;-67
2023/04/30 12:50:57;;;;;;;2.92;0.80;;;29.20;59.40;;;;;;4955255;28;20038;-67
2023/04/30 12:53:24;;;;;;;1.40;0.60;;;29.50;57.80;;;;;;4954343;28;20514;-68
2023/04/30 12:56:16;;;;;;;1.75;0.60;;;29.70;57.60;;;;;;4958527;28;20818;-69
2023/04/30 12:58:49;;;;;;;;;;;30.30;57.60;;;;;;4958472;28;20424;-68
2023/04/30 13:01:19;;;;;;;2.30;0.50;;;30.50;56.80;;;;;;4957511;28;19922;-68